sensor_id;sensor_type;location;lat;lon;timestamp;P1;durP1;ratioP1;P2;durP2;ratioP2
20988;SDS011;10653;47.052;15.410;2023-02-15T00:00:21;28.13;;;19.95;;
20988;SDS011;10653;47.052;15.410;2023-02-15T00:02:48;26.15;;;19.50;;
20988;SDS011;10653;47.052;15.410;2023-02-15T00:05:14;24.88;;;19.15;;
20988;SDS011;10653;47.052;15.410;2023-02-15T00:07:40;25.73;;;21.02;;
20988;SDS011;10653;47.052;15.410;2023-02-15T00:10:06;27.87;;;21.33;;
20988;SDS011;10653;47.052;15.410;2023-02-15T00:12:32;28.15;;;21.75;;
20988;SDS011;10653;47.052;15.410;2023-02-15T00:14:58;27.73;;;21.10;;
20988;SDS011;10653;47.052;15.410;2023-02-15T00:17:26;27.23;;;21.43;;
20988;SDS011;10653;47.052;15.410;2023-02-15T00:19:52;22.30;;;18.95;;
20988;SDS011;10653;47.052;15.410;2023-02-15T00:22:18;24.65;;;20.33;;
20988;SDS011;10653;47.052;15.410;2023-02-15T00:24:44;24.27;;;19.27;;
20988;SDS011;10653;47.052;15.410;2023-02-15T00:27:10;23.60;;;20.57;;
20988;SDS011;10653;47.052;15.410;2023-02-15T00:29:37;25.52;;;20.60;;
20988;SDS011;10653;47.052;15.410;2023-02-15T00:32:03;22.42;;;18.55;;
20988;SDS011;10653;47.052;15.410;2023-02-15T00:34:29;27.17;;;20.05;;
20988;SDS011;10653;47.052;15.410;2023-02-15T00:36:55;24.17;;;20.05;;
20988;SDS011;10653;47.052;15.410;2023-02-15T00:39:21;23.10;;;18.40;;
20988;SDS011;10653;47.052;15.410;2023-02-15T00:41:48;22.85;;;17.90;;
20988;SDS011;10653;47.052;15.410;2023-02-15T00:44:14;23.27;;;16.83;;
20988;SDS011;10653;47.052;15.410;2023-02-15T00:46:41;25.40;;;19.40;;
20988;SDS011;10653;47.052;15.410;2023-02-15T00:49:07;26.97;;;19.40;;
20988;SDS011;10653;47.052;15.410;2023-02-15T00:51:33;22.40;;;17.83;;
20988;SDS011;10653;47.052;15.410;2023-02-15T00:53:59;23.00;;;18.10;;
20988;SDS011;10653;47.052;15.410;2023-02-15T00:56:25;24.20;;;20.67;;
20988;SDS011;10653;47.052;15.410;2023-02-15T00:58:53;26.27;;;20.80;;
20988;SDS011;10653;47.052;15.410;2023-02-15T01:01:19;23.33;;;19.63;;
20988;SDS011;10653;47.052;15.410;2023-02-15T01:03:46;24.98;;;20.42;;
20988;SDS011;10653;47.052;15.410;2023-02-15T01:06:12;26.15;;;22.15;;
20988;SDS011;10653;47.052;15.410;2023-02-15T01:08:39;24.92;;;18.67;;
20988;SDS011;10653;47.052;15.410;2023-02-15T01:11:06;27.00;;;21.23;;
20988;SDS011;10653;47.052;15.410;2023-02-15T01:13:32;24.48;;;19.45;;
20988;SDS011;10653;47.052;15.410;2023-02-15T01:15:58;22.33;;;19.13;;
20988;SDS011;10653;47.052;15.410;2023-02-15T01:18:24;24.75;;;20.58;;
20988;SDS011;10653;47.052;15.410;2023-02-15T01:20:51;26.83;;;19.33;;
20988;SDS011;10653;47.052;15.410;2023-02-15T01:23:17;26.13;;;19.42;;
20988;SDS011;10653;47.052;15.410;2023-02-15T01:25:43;26.05;;;19.05;;
20988;SDS011;10653;47.052;15.410;2023-02-15T01:28:09;24.90;;;19.92;;
20988;SDS011;10653;47.052;15.410;2023-02-15T01:30:35;24.58;;;19.27;;
20988;SDS011;10653;47.052;15.410;2023-02-15T01:33:02;22.33;;;18.15;;
20988;SDS011;10653;47.052;15.410;2023-02-15T01:35:28;25.88;;;19.30;;
20988;SDS011;10653;47.052;15.410;2023-02-15T01:37:54;21.60;;;17.00;;
20988;SDS011;10653;47.052;15.410;2023-02-15T01:40:21;24.33;;;18.63;;
20988;SDS011;10653;47.052;15.410;2023-02-15T01:42:50;21.65;;;18.25;;
20988;SDS011;10653;47.052;15.410;2023-02-15T01:47:52;23.83;;;17.63;;
20988;SDS011;10653;47.052;15.410;2023-02-15T01:50:22;21.23;;;17.45;;
20988;SDS011;10653;47.052;15.410;2023-02-15T01:52:54;23.35;;;17.83;;
20988;SDS011;10653;47.052;15.410;2023-02-15T01:55:21;22.45;;;16.77;;
20988;SDS011;10653;47.052;15.410;2023-02-15T01:57:48;22.50;;;16.98;;
20988;SDS011;10653;47.052;15.410;2023-02-15T02:00:15;25.17;;;19.27;;
20988;SDS011;10653;47.052;15.410;2023-02-15T02:02:42;22.75;;;16.98;;
20988;SDS011;10653;47.052;15.410;2023-02-15T02:05:09;22.15;;;17.92;;
20988;SDS011;10653;47.052;15.410;2023-02-15T02:07:37;24.15;;;18.17;;
20988;SDS011;10653;47.052;15.410;2023-02-15T02:10:04;23.95;;;18.73;;
20988;SDS011;10653;47.052;15.410;2023-02-15T02:12:31;28.98;;;21.40;;
20988;SDS011;10653;47.052;15.410;2023-02-15T02:14:57;26.55;;;20.60;;
20988;SDS011;10653;47.052;15.410;2023-02-15T02:17:32;25.55;;;21.05;;
20988;SDS011;10653;47.052;15.410;2023-02-15T02:22:43;27.88;;;19.60;;
20988;SDS011;10653;47.052;15.410;2023-02-15T02:35:43;29.25;;;20.63;;
20988;SDS011;10653;47.052;15.410;2023-02-15T02:41:08;24.55;;;19.85;;
20988;SDS011;10653;47.052;15.410;2023-02-15T02:43:48;23.13;;;19.20;;
20988;SDS011;10653;47.052;15.410;2023-02-15T02:46:22;26.83;;;20.17;;
20988;SDS011;10653;47.052;15.410;2023-02-15T02:48:50;23.77;;;18.30;;
20988;SDS011;10653;47.052;15.410;2023-02-15T02:51:17;26.88;;;19.58;;
20988;SDS011;10653;47.052;15.410;2023-02-15T02:53:47;24.63;;;18.15;;
20988;SDS011;10653;47.052;15.410;2023-02-15T02:59:15;25.30;;;19.13;;
20988;SDS011;10653;47.052;15.410;2023-02-15T03:01:47;23.45;;;17.80;;
20988;SDS011;10653;47.052;15.410;2023-02-15T03:04:17;22.42;;;19.00;;
20988;SDS011;10653;47.052;15.410;2023-02-15T03:07:17;24.95;;;19.10;;
20988;SDS011;10653;47.052;15.410;2023-02-15T03:09:37;23.05;;;18.60;;
20988;SDS011;10653;47.052;15.410;2023-02-15T03:12:11;24.00;;;19.58;;
20988;SDS011;10653;47.052;15.410;2023-02-15T03:14:37;23.15;;;19.65;;
20988;SDS011;10653;47.052;15.410;2023-02-15T03:17:04;27.73;;;19.63;;
20988;SDS011;10653;47.052;15.410;2023-02-15T03:19:33;27.08;;;19.77;;
20988;SDS011;10653;47.052;15.410;2023-02-15T03:22:01;27.20;;;20.33;;
20988;SDS011;10653;47.052;15.410;2023-02-15T03:24:38;26.08;;;18.67;;
20988;SDS011;10653;47.052;15.410;2023-02-15T03:27:06;26.60;;;19.80;;
20988;SDS011;10653;47.052;15.410;2023-02-15T03:29:34;26.83;;;20.23;;
20988;SDS011;10653;47.052;15.410;2023-02-15T03:32:01;25.65;;;20.30;;
20988;SDS011;10653;47.052;15.410;2023-02-15T03:34:28;26.00;;;20.27;;
20988;SDS011;10653;47.052;15.410;2023-02-15T03:37:00;27.33;;;20.73;;
20988;SDS011;10653;47.052;15.410;2023-02-15T03:39:39;28.10;;;21.17;;
20988;SDS011;10653;47.052;15.410;2023-02-15T03:47:27;28.00;;;20.88;;
20988;SDS011;10653;47.052;15.410;2023-02-15T03:52:23;25.35;;;20.55;;
20988;SDS011;10653;47.052;15.410;2023-02-15T03:54:51;26.70;;;22.20;;
20988;SDS011;10653;47.052;15.410;2023-02-15T03:57:19;26.23;;;20.85;;
20988;SDS011;10653;47.052;15.410;2023-02-15T04:00:09;26.90;;;20.92;;
20988;SDS011;10653;47.052;15.410;2023-02-15T04:05:41;26.92;;;20.65;;
20988;SDS011;10653;47.052;15.410;2023-02-15T04:08:07;27.00;;;20.92;;
20988;SDS011;10653;47.052;15.410;2023-02-15T04:10:33;27.00;;;20.63;;
20988;SDS011;10653;47.052;15.410;2023-02-15T04:13:22;33.55;;;24.08;;
20988;SDS011;10653;47.052;15.410;2023-02-15T04:15:48;29.63;;;22.65;;
20988;SDS011;10653;47.052;15.410;2023-02-15T04:18:47;32.42;;;22.77;;
20988;SDS011;10653;47.052;15.410;2023-02-15T04:21:32;31.02;;;23.40;;
20988;SDS011;10653;47.052;15.410;2023-02-15T04:24:16;30.27;;;23.05;;
20988;SDS011;10653;47.052;15.410;2023-02-15T04:27:01;30.15;;;23.30;;
20988;SDS011;10653;47.052;15.410;2023-02-15T04:29:28;30.45;;;20.95;;
20988;SDS011;10653;47.052;15.410;2023-02-15T04:31:55;30.02;;;22.65;;
20988;SDS011;10653;47.052;15.410;2023-02-15T04:34:21;32.55;;;23.35;;
20988;SDS011;10653;47.052;15.410;2023-02-15T04:36:47;30.15;;;21.90;;
20988;SDS011;10653;47.052;15.410;2023-02-15T04:39:13;39.58;;;24.50;;
20988;SDS011;10653;47.052;15.410;2023-02-15T04:41:40;32.70;;;22.05;;
20988;SDS011;10653;47.052;15.410;2023-02-15T04:44:06;35.35;;;22.25;;
20988;SDS011;10653;47.052;15.410;2023-02-15T04:46:32;30.95;;;21.65;;
20988;SDS011;10653;47.052;15.410;2023-02-15T04:48:58;31.20;;;22.77;;
20988;SDS011;10653;47.052;15.410;2023-02-15T04:51:24;28.13;;;20.23;;
20988;SDS011;10653;47.052;15.410;2023-02-15T04:53:50;26.80;;;19.92;;
20988;SDS011;10653;47.052;15.410;2023-02-15T04:56:20;24.92;;;18.05;;
20988;SDS011;10653;47.052;15.410;2023-02-15T04:58:46;26.52;;;18.98;;
20988;SDS011;10653;47.052;15.410;2023-02-15T05:01:12;26.88;;;19.08;;
20988;SDS011;10653;47.052;15.410;2023-02-15T05:03:38;27.25;;;19.70;;
20988;SDS011;10653;47.052;15.410;2023-02-15T05:06:04;25.67;;;18.65;;
20988;SDS011;10653;47.052;15.410;2023-02-15T05:08:30;23.83;;;18.48;;
20988;SDS011;10653;47.052;15.410;2023-02-15T05:10:57;25.60;;;20.80;;
20988;SDS011;10653;47.052;15.410;2023-02-15T05:13:23;28.55;;;19.98;;
20988;SDS011;10653;47.052;15.410;2023-02-15T05:15:49;27.88;;;19.48;;
20988;SDS011;10653;47.052;15.410;2023-02-15T05:18:16;28.67;;;20.65;;
20988;SDS011;10653;47.052;15.410;2023-02-15T05:20:43;24.45;;;19.98;;
20988;SDS011;10653;47.052;15.410;2023-02-15T05:23:09;29.55;;;20.60;;
20988;SDS011;10653;47.052;15.410;2023-02-15T05:25:35;25.63;;;18.73;;
20988;SDS011;10653;47.052;15.410;2023-02-15T05:28:20;30.40;;;20.30;;
20988;SDS011;10653;47.052;15.410;2023-02-15T05:30:50;28.73;;;19.85;;
20988;SDS011;10653;47.052;15.410;2023-02-15T05:33:16;27.85;;;20.60;;
20988;SDS011;10653;47.052;15.410;2023-02-15T05:35:43;32.05;;;19.08;;
20988;SDS011;10653;47.052;15.410;2023-02-15T05:38:09;32.80;;;19.42;;
20988;SDS011;10653;47.052;15.410;2023-02-15T05:40:35;31.50;;;20.25;;
20988;SDS011;10653;47.052;15.410;2023-02-15T05:43:01;28.83;;;19.80;;
20988;SDS011;10653;47.052;15.410;2023-02-15T05:45:27;32.45;;;19.23;;
20988;SDS011;10653;47.052;15.410;2023-02-15T05:47:53;27.95;;;19.40;;
20988;SDS011;10653;47.052;15.410;2023-02-15T05:50:19;30.30;;;18.85;;
20988;SDS011;10653;47.052;15.410;2023-02-15T05:52:45;26.60;;;21.10;;
20988;SDS011;10653;47.052;15.410;2023-02-15T05:55:11;27.65;;;19.80;;
20988;SDS011;10653;47.052;15.410;2023-02-15T05:57:38;28.05;;;18.95;;
20988;SDS011;10653;47.052;15.410;2023-02-15T06:00:04;30.08;;;19.77;;
20988;SDS011;10653;47.052;15.410;2023-02-15T06:02:33;26.38;;;17.52;;
20988;SDS011;10653;47.052;15.410;2023-02-15T06:04:59;26.88;;;19.08;;
20988;SDS011;10653;47.052;15.410;2023-02-15T06:07:25;26.63;;;19.75;;
20988;SDS011;10653;47.052;15.410;2023-02-15T06:09:51;29.65;;;18.95;;
20988;SDS011;10653;47.052;15.410;2023-02-15T06:12:17;23.63;;;18.43;;
20988;SDS011;10653;47.052;15.410;2023-02-15T06:14:43;28.70;;;18.60;;
20988;SDS011;10653;47.052;15.410;2023-02-15T06:17:09;24.37;;;16.73;;
20988;SDS011;10653;47.052;15.410;2023-02-15T06:19:36;24.92;;;18.92;;
20988;SDS011;10653;47.052;15.410;2023-02-15T06:22:02;29.85;;;17.80;;
20988;SDS011;10653;47.052;15.410;2023-02-15T06:24:28;29.95;;;18.83;;
20988;SDS011;10653;47.052;15.410;2023-02-15T06:26:55;23.25;;;18.52;;
20988;SDS011;10653;47.052;15.410;2023-02-15T06:29:21;30.95;;;20.45;;
20988;SDS011;10653;47.052;15.410;2023-02-15T06:31:47;30.83;;;20.77;;
20988;SDS011;10653;47.052;15.410;2023-02-15T06:34:13;24.67;;;18.30;;
20988;SDS011;10653;47.052;15.410;2023-02-15T06:36:39;23.45;;;18.17;;
20988;SDS011;10653;47.052;15.410;2023-02-15T06:39:05;26.50;;;19.90;;
20988;SDS011;10653;47.052;15.410;2023-02-15T06:41:31;29.45;;;20.27;;
20988;SDS011;10653;47.052;15.410;2023-02-15T06:43:57;24.40;;;18.40;;
20988;SDS011;10653;47.052;15.410;2023-02-15T06:46:23;30.60;;;20.60;;
20988;SDS011;10653;47.052;15.410;2023-02-15T06:48:49;28.63;;;20.10;;
20988;SDS011;10653;47.052;15.410;2023-02-15T06:51:15;28.48;;;21.45;;
20988;SDS011;10653;47.052;15.410;2023-02-15T06:53:41;28.35;;;20.10;;
20988;SDS011;10653;47.052;15.410;2023-02-15T06:56:07;27.48;;;19.65;;
20988;SDS011;10653;47.052;15.410;2023-02-15T06:58:40;31.08;;;20.67;;
20988;SDS011;10653;47.052;15.410;2023-02-15T07:01:06;27.27;;;19.60;;
20988;SDS011;10653;47.052;15.410;2023-02-15T07:03:33;28.50;;;20.20;;
20988;SDS011;10653;47.052;15.410;2023-02-15T07:06:01;27.35;;;19.73;;
20988;SDS011;10653;47.052;15.410;2023-02-15T07:08:27;28.85;;;20.80;;
20988;SDS011;10653;47.052;15.410;2023-02-15T07:10:54;28.70;;;19.88;;
20988;SDS011;10653;47.052;15.410;2023-02-15T07:13:40;28.33;;;20.15;;
20988;SDS011;10653;47.052;15.410;2023-02-15T07:16:07;33.15;;;21.88;;
20988;SDS011;10653;47.052;15.410;2023-02-15T07:18:34;29.45;;;20.70;;
20988;SDS011;10653;47.052;15.410;2023-02-15T07:21:00;31.93;;;20.53;;
20988;SDS011;10653;47.052;15.410;2023-02-15T07:23:26;28.65;;;20.55;;
20988;SDS011;10653;47.052;15.410;2023-02-15T07:25:58;28.85;;;19.73;;
20988;SDS011;10653;47.052;15.410;2023-02-15T07:28:24;28.23;;;21.10;;
20988;SDS011;10653;47.052;15.410;2023-02-15T07:30:51;31.25;;;21.20;;
20988;SDS011;10653;47.052;15.410;2023-02-15T07:33:17;29.13;;;22.17;;
20988;SDS011;10653;47.052;15.410;2023-02-15T07:38:15;24.95;;;18.23;;
20988;SDS011;10653;47.052;15.410;2023-02-15T07:40:41;31.67;;;20.77;;
20988;SDS011;10653;47.052;15.410;2023-02-15T07:43:08;33.15;;;22.40;;
20988;SDS011;10653;47.052;15.410;2023-02-15T07:45:34;34.42;;;22.38;;
20988;SDS011;10653;47.052;15.410;2023-02-15T07:48:00;32.30;;;22.23;;
20988;SDS011;10653;47.052;15.410;2023-02-15T07:50:27;29.63;;;23.00;;
20988;SDS011;10653;47.052;15.410;2023-02-15T07:52:53;32.53;;;22.50;;
20988;SDS011;10653;47.052;15.410;2023-02-15T07:55:19;31.42;;;23.70;;
20988;SDS011;10653;47.052;15.410;2023-02-15T07:57:45;33.10;;;21.90;;
20988;SDS011;10653;47.052;15.410;2023-02-15T08:00:15;29.92;;;21.45;;
20988;SDS011;10653;47.052;15.410;2023-02-15T08:02:42;35.08;;;23.02;;
20988;SDS011;10653;47.052;15.410;2023-02-15T08:05:12;37.97;;;23.20;;
20988;SDS011;10653;47.052;15.410;2023-02-15T08:07:38;31.27;;;22.63;;
20988;SDS011;10653;47.052;15.410;2023-02-15T08:10:05;33.50;;;23.67;;
20988;SDS011;10653;47.052;15.410;2023-02-15T08:12:31;37.55;;;23.10;;
20988;SDS011;10653;47.052;15.410;2023-02-15T08:14:57;32.03;;;22.80;;
20988;SDS011;10653;47.052;15.410;2023-02-15T08:17:23;35.40;;;22.50;;
20988;SDS011;10653;47.052;15.410;2023-02-15T08:19:49;30.33;;;20.60;;
20988;SDS011;10653;47.052;15.410;2023-02-15T08:22:15;33.30;;;22.73;;
20988;SDS011;10653;47.052;15.410;2023-02-15T08:24:41;36.27;;;23.87;;
20988;SDS011;10653;47.052;15.410;2023-02-15T08:27:08;37.23;;;22.10;;
20988;SDS011;10653;47.052;15.410;2023-02-15T08:29:35;32.45;;;22.58;;
20988;SDS011;10653;47.052;15.410;2023-02-15T08:32:04;32.03;;;22.90;;
20988;SDS011;10653;47.052;15.410;2023-02-15T08:34:31;34.30;;;22.87;;
20988;SDS011;10653;47.052;15.410;2023-02-15T08:36:57;36.30;;;22.63;;
20988;SDS011;10653;47.052;15.410;2023-02-15T08:39:23;34.05;;;22.90;;
20988;SDS011;10653;47.052;15.410;2023-02-15T08:41:49;29.63;;;21.20;;
20988;SDS011;10653;47.052;15.410;2023-02-15T08:44:16;34.05;;;23.05;;
20988;SDS011;10653;47.052;15.410;2023-02-15T08:46:43;30.37;;;20.70;;
20988;SDS011;10653;47.052;15.410;2023-02-15T08:49:11;32.50;;;21.83;;
20988;SDS011;10653;47.052;15.410;2023-02-15T08:51:38;34.50;;;23.10;;
20988;SDS011;10653;47.052;15.410;2023-02-15T08:54:06;32.23;;;21.63;;
20988;SDS011;10653;47.052;15.410;2023-02-15T08:56:34;39.73;;;24.33;;
20988;SDS011;10653;47.052;15.410;2023-02-15T08:59:01;35.50;;;24.20;;
20988;SDS011;10653;47.052;15.410;2023-02-15T09:01:31;40.93;;;25.80;;
20988;SDS011;10653;47.052;15.410;2023-02-15T09:03:59;41.83;;;28.13;;
20988;SDS011;10653;47.052;15.410;2023-02-15T09:06:25;37.83;;;25.40;;
20988;SDS011;10653;47.052;15.410;2023-02-15T09:08:51;35.10;;;25.30;;
20988;SDS011;10653;47.052;15.410;2023-02-15T09:11:18;38.13;;;25.33;;
20988;SDS011;10653;47.052;15.410;2023-02-15T09:13:52;38.10;;;25.30;;
20988;SDS011;10653;47.052;15.410;2023-02-15T09:16:19;36.80;;;26.30;;
20988;SDS011;10653;47.052;15.410;2023-02-15T09:18:45;38.45;;;25.08;;
20988;SDS011;10653;47.052;15.410;2023-02-15T09:21:12;39.35;;;27.02;;
20988;SDS011;10653;47.052;15.410;2023-02-15T09:23:39;42.83;;;27.50;;
20988;SDS011;10653;47.052;15.410;2023-02-15T09:26:09;41.90;;;25.25;;
20988;SDS011;10653;47.052;15.410;2023-02-15T09:28:36;41.40;;;27.10;;
20988;SDS011;10653;47.052;15.410;2023-02-15T09:31:15;38.67;;;27.27;;
20988;SDS011;10653;47.052;15.410;2023-02-15T09:33:42;40.73;;;25.27;;
20988;SDS011;10653;47.052;15.410;2023-02-15T09:38:39;45.50;;;27.80;;
20988;SDS011;10653;47.052;15.410;2023-02-15T09:41:16;47.30;;;27.93;;
20988;SDS011;10653;47.052;15.410;2023-02-15T09:49:21;36.90;;;25.13;;
20988;SDS011;10653;47.052;15.410;2023-02-15T09:56:55;39.00;;;27.00;;
20988;SDS011;10653;47.052;15.410;2023-02-15T10:02:02;41.75;;;28.13;;
20988;SDS011;10653;47.052;15.410;2023-02-15T10:07:42;42.10;;;27.87;;
20988;SDS011;10653;47.052;15.410;2023-02-15T10:12:52;42.80;;;26.27;;
20988;SDS011;10653;47.052;15.410;2023-02-15T10:25:34;36.97;;;26.70;;
20988;SDS011;10653;47.052;15.410;2023-02-15T10:28:09;41.17;;;27.20;;
20988;SDS011;10653;47.052;15.410;2023-02-15T10:35:48;42.03;;;26.73;;
20988;SDS011;10653;47.052;15.410;2023-02-15T10:38:21;39.80;;;25.70;;
20988;SDS011;10653;47.052;15.410;2023-02-15T11:03:52;46.50;;;27.87;;
20988;SDS011;10653;47.052;15.410;2023-02-15T11:06:22;39.20;;;25.10;;
20988;SDS011;10653;47.052;15.410;2023-02-15T11:08:54;46.27;;;26.60;;
20988;SDS011;10653;47.052;15.410;2023-02-15T11:11:23;43.97;;;26.70;;
20988;SDS011;10653;47.052;15.410;2023-02-15T11:13:50;44.03;;;27.87;;
20988;SDS011;10653;47.052;15.410;2023-02-15T11:16:20;45.78;;;28.40;;
20988;SDS011;10653;47.052;15.410;2023-02-15T11:19:01;46.88;;;26.60;;
20988;SDS011;10653;47.052;15.410;2023-02-15T11:21:31;42.90;;;27.13;;
20988;SDS011;10653;47.052;15.410;2023-02-15T11:24:07;41.47;;;27.10;;
20988;SDS011;10653;47.052;15.410;2023-02-15T11:26:39;43.40;;;26.33;;
20988;SDS011;10653;47.052;15.410;2023-02-15T11:31:55;41.57;;;27.00;;
20988;SDS011;10653;47.052;15.410;2023-02-15T11:34:27;37.97;;;26.33;;
20988;SDS011;10653;47.052;15.410;2023-02-15T11:36:55;37.57;;;26.07;;
20988;SDS011;10653;47.052;15.410;2023-02-15T11:39:24;32.20;;;21.90;;
20988;SDS011;10653;47.052;15.410;2023-02-15T11:41:55;38.57;;;22.90;;
20988;SDS011;10653;47.052;15.410;2023-02-15T11:44:27;36.57;;;24.33;;
20988;SDS011;10653;47.052;15.410;2023-02-15T11:46:57;36.03;;;24.43;;
20988;SDS011;10653;47.052;15.410;2023-02-15T11:51:55;37.00;;;23.73;;
20988;SDS011;10653;47.052;15.410;2023-02-15T11:54:23;36.03;;;25.50;;
20988;SDS011;10653;47.052;15.410;2023-02-15T11:56:52;36.50;;;24.03;;
20988;SDS011;10653;47.052;15.410;2023-02-15T11:59:24;40.70;;;24.57;;
20988;SDS011;10653;47.052;15.410;2023-02-15T12:01:53;32.93;;;23.93;;
20988;SDS011;10653;47.052;15.410;2023-02-15T12:04:26;42.47;;;26.50;;
20988;SDS011;10653;47.052;15.410;2023-02-15T12:06:58;37.23;;;25.17;;
20988;SDS011;10653;47.052;15.410;2023-02-15T12:12:25;36.77;;;23.60;;
20988;SDS011;10653;47.052;15.410;2023-02-15T12:14:55;42.33;;;25.10;;
20988;SDS011;10653;47.052;15.410;2023-02-15T12:17:22;39.47;;;25.83;;
20988;SDS011;10653;47.052;15.410;2023-02-15T12:19:49;39.50;;;25.53;;
20988;SDS011;10653;47.052;15.410;2023-02-15T12:22:30;44.20;;;25.50;;
20988;SDS011;10653;47.052;15.410;2023-02-15T12:25:00;41.57;;;27.60;;
20988;SDS011;10653;47.052;15.410;2023-02-15T12:27:27;43.37;;;27.40;;
20988;SDS011;10653;47.052;15.410;2023-02-15T12:34:59;37.23;;;26.00;;
20988;SDS011;10653;47.052;15.410;2023-02-15T12:37:27;33.97;;;24.60;;
20988;SDS011;10653;47.052;15.410;2023-02-15T12:39:58;37.73;;;25.93;;
20988;SDS011;10653;47.052;15.410;2023-02-15T12:42:24;38.57;;;25.43;;
20988;SDS011;10653;47.052;15.410;2023-02-15T12:47:23;36.13;;;24.10;;
20988;SDS011;10653;47.052;15.410;2023-02-15T12:50:08;34.80;;;25.40;;
20988;SDS011;10653;47.052;15.410;2023-02-15T12:52:41;42.37;;;26.40;;
20988;SDS011;10653;47.052;15.410;2023-02-15T12:55:17;34.23;;;26.27;;
20988;SDS011;10653;47.052;15.410;2023-02-15T12:57:44;36.90;;;26.47;;
20988;SDS011;10653;47.052;15.410;2023-02-15T13:05:14;36.97;;;26.90;;
20988;SDS011;10653;47.052;15.410;2023-02-15T13:08:08;37.17;;;27.13;;
20988;SDS011;10653;47.052;15.410;2023-02-15T13:10:31;39.40;;;27.87;;
20988;SDS011;10653;47.052;15.410;2023-02-15T13:12:59;35.70;;;25.97;;
20988;SDS011;10653;47.052;15.410;2023-02-15T13:15:38;34.27;;;25.03;;
20988;SDS011;10653;47.052;15.410;2023-02-15T13:18:05;37.30;;;27.90;;
20988;SDS011;10653;47.052;15.410;2023-02-15T13:20:36;41.17;;;28.10;;
20988;SDS011;10653;47.052;15.410;2023-02-15T13:23:05;32.13;;;26.10;;
20988;SDS011;10653;47.052;15.410;2023-02-15T13:25:44;34.97;;;27.13;;
20988;SDS011;10653;47.052;15.410;2023-02-15T13:28:15;35.57;;;27.87;;
20988;SDS011;10653;47.052;15.410;2023-02-15T13:30:43;33.23;;;27.30;;
20988;SDS011;10653;47.052;15.410;2023-02-15T13:33:21;35.60;;;28.47;;
20988;SDS011;10653;47.052;15.410;2023-02-15T13:41:23;41.40;;;31.60;;
20988;SDS011;10653;47.052;15.410;2023-02-15T13:51:55;40.00;;;28.80;;
20988;SDS011;10653;47.052;15.410;2023-02-15T13:54:32;38.60;;;27.73;;
20988;SDS011;10653;47.052;15.410;2023-02-15T14:20:28;38.80;;;26.60;;
20988;SDS011;10653;47.052;15.410;2023-02-15T14:29:18;39.10;;;27.30;;
20988;SDS011;10653;47.052;15.410;2023-02-15T14:31:27;37.03;;;25.90;;
20988;SDS011;10653;47.052;15.410;2023-02-15T14:33:54;32.87;;;25.80;;
20988;SDS011;10653;47.052;15.410;2023-02-15T14:36:21;41.93;;;26.40;;
20988;SDS011;10653;47.052;15.410;2023-02-15T14:39:07;38.87;;;27.10;;
20988;SDS011;10653;47.052;15.410;2023-02-15T14:41:59;36.70;;;26.17;;
20988;SDS011;10653;47.052;15.410;2023-02-15T14:44:29;39.83;;;24.30;;
20988;SDS011;10653;47.052;15.410;2023-02-15T14:49:36;40.77;;;27.70;;
20988;SDS011;10653;47.052;15.410;2023-02-15T14:52:04;37.90;;;24.77;;
20988;SDS011;10653;47.052;15.410;2023-02-15T14:59:36;42.23;;;25.97;;
20988;SDS011;10653;47.052;15.410;2023-02-15T15:07:25;38.80;;;24.80;;
20988;SDS011;10653;47.052;15.410;2023-02-15T15:10:03;38.63;;;25.03;;
20988;SDS011;10653;47.052;15.410;2023-02-15T15:12:41;38.80;;;23.90;;
20988;SDS011;10653;47.052;15.410;2023-02-15T15:15:09;42.60;;;26.27;;
20988;SDS011;10653;47.052;15.410;2023-02-15T15:20:05;35.73;;;25.73;;
20988;SDS011;10653;47.052;15.410;2023-02-15T15:22:38;44.30;;;26.87;;
20988;SDS011;10653;47.052;15.410;2023-02-15T15:27:51;38.20;;;23.97;;
20988;SDS011;10653;47.052;15.410;2023-02-15T15:38:18;41.60;;;25.10;;
20988;SDS011;10653;47.052;15.410;2023-02-15T15:51:00;44.00;;;27.40;;
20988;SDS011;10653;47.052;15.410;2023-02-15T15:53:29;41.17;;;26.97;;
20988;SDS011;10653;47.052;15.410;2023-02-15T15:55:58;45.93;;;27.40;;
20988;SDS011;10653;47.052;15.410;2023-02-15T15:58:24;43.40;;;26.70;;
20988;SDS011;10653;47.052;15.410;2023-02-15T16:01:09;43.40;;;26.87;;
20988;SDS011;10653;47.052;15.410;2023-02-15T16:03:49;40.83;;;25.80;;
20988;SDS011;10653;47.052;15.410;2023-02-15T16:06:35;38.50;;;24.47;;
20988;SDS011;10653;47.052;15.410;2023-02-15T16:09:15;40.73;;;27.53;;
20988;SDS011;10653;47.052;15.410;2023-02-15T16:11:42;42.30;;;25.80;;
20988;SDS011;10653;47.052;15.410;2023-02-15T16:14:11;43.67;;;27.17;;
20988;SDS011;10653;47.052;15.410;2023-02-15T16:16:38;42.93;;;26.80;;
20988;SDS011;10653;47.052;15.410;2023-02-15T16:19:04;35.10;;;25.03;;
20988;SDS011;10653;47.052;15.410;2023-02-15T16:21:31;41.87;;;25.40;;
20988;SDS011;10653;47.052;15.410;2023-02-15T16:24:05;44.50;;;26.00;;
20988;SDS011;10653;47.052;15.410;2023-02-15T16:29:00;41.67;;;27.03;;
20988;SDS011;10653;47.052;15.410;2023-02-15T16:31:26;42.13;;;26.47;;
20988;SDS011;10653;47.052;15.410;2023-02-15T16:33:53;41.73;;;26.50;;
20988;SDS011;10653;47.052;15.410;2023-02-15T16:36:23;42.37;;;26.43;;
20988;SDS011;10653;47.052;15.410;2023-02-15T16:41:17;46.83;;;26.63;;
20988;SDS011;10653;47.052;15.410;2023-02-15T16:43:48;45.57;;;26.77;;
20988;SDS011;10653;47.052;15.410;2023-02-15T16:46:19;50.33;;;28.57;;
20988;SDS011;10653;47.052;15.410;2023-02-15T16:48:46;48.47;;;30.23;;
20988;SDS011;10653;47.052;15.410;2023-02-15T16:51:53;44.90;;;31.00;;
20988;SDS011;10653;47.052;15.410;2023-02-15T16:54:07;49.90;;;31.90;;
20988;SDS011;10653;47.052;15.410;2023-02-15T16:56:33;46.90;;;30.83;;
20988;SDS011;10653;47.052;15.410;2023-02-15T16:59:01;48.37;;;34.50;;
20988;SDS011;10653;47.052;15.410;2023-02-15T17:01:29;55.57;;;39.57;;
20988;SDS011;10653;47.052;15.410;2023-02-15T17:06:41;53.90;;;34.30;;
20988;SDS011;10653;47.052;15.410;2023-02-15T17:09:13;50.37;;;32.20;;
20988;SDS011;10653;47.052;15.410;2023-02-15T17:11:40;48.57;;;30.93;;
20988;SDS011;10653;47.052;15.410;2023-02-15T17:16:41;52.03;;;35.33;;
20988;SDS011;10653;47.052;15.410;2023-02-15T17:19:09;50.53;;;32.10;;
20988;SDS011;10653;47.052;15.410;2023-02-15T17:21:49;48.30;;;31.47;;
20988;SDS011;10653;47.052;15.410;2023-02-15T17:24:28;46.57;;;32.60;;
20988;SDS011;10653;47.052;15.410;2023-02-15T17:27:00;48.10;;;34.63;;
20988;SDS011;10653;47.052;15.410;2023-02-15T17:29:30;52.47;;;34.47;;
20988;SDS011;10653;47.052;15.410;2023-02-15T17:31:58;55.03;;;35.90;;
20988;SDS011;10653;47.052;15.410;2023-02-15T17:37:14;62.47;;;39.60;;
20988;SDS011;10653;47.052;15.410;2023-02-15T17:39:49;51.87;;;36.33;;
20988;SDS011;10653;47.052;15.410;2023-02-15T17:42:16;54.33;;;38.53;;
20988;SDS011;10653;47.052;15.410;2023-02-15T17:44:44;58.03;;;35.63;;
20988;SDS011;10653;47.052;15.410;2023-02-15T17:47:14;46.83;;;32.73;;